Time;durP1;ratioP1;P1;durP2;ratioP2;P2;SDS_P1;SDS_P2;PMS_P1;PMS_P2;Temp;Humidity;BMP_temperature;BMP_pressure;BME280_temperature;BME280_humidity;BME280_pressure;Samples;Min_cycle;Max_cycle;Signal;HPM_P1;HPM_P2
2021/03/08 00:00:20;;;;;;;0.03;0.03;;;15.20;63.40;;;;;;4197642;28;20149;-46
2021/03/08 00:02:41;;;;;;;1.25;0.85;;;15.20;63.50;;;;;;4197390;28;20052;-45
2021/03/08 00:05:02;;;;;;;;;;;15.20;63.40;;;;;;4197853;28;20102;-44
2021/03/08 00:07:23;;;;;;;0.00;0.00;;;15.20;63.40;;;;;;4197795;28;19963;-45
2021/03/08 00:09:45;;;;;;;0.00;0.00;;;15.20;63.50;;;;;;4197497;28;20318;-46
2021/03/08 00:12:08;;;;;;;0.22;0.22;;;15.10;63.40;;;;;;4197330;28;20076;-44
2021/03/08 00:14:29;;;;;;;0.15;0.15;;;15.10;63.40;;;;;;4197693;28;20055;-43
2021/03/08 00:16:50;;;;;;;0.00;0.00;;;15.10;63.50;;;;;;4197441;28;20063;-44
2021/03/08 00:19:12;;;;;;;0.43;0.43;;;15.10;63.40;;;;;;4197489;28;20438;-44
2021/03/08 00:21:33;;;;;;;0.00;0.00;;;15.10;63.50;;;;;;4197184;28;20111;-43
2021/03/08 00:23:53;;;;;;;0.00;0.00;;;15.10;63.50;;;;;;4196808;28;20127;-43
2021/03/08 00:26:14;;;;;;;0.00;0.00;;;15.10;63.50;;;;;;4197039;28;20442;-43
2021/03/08 00:28:36;;;;;;;0.00;0.00;;;15.10;63.50;;;;;;4197461;28;20059;-47
2021/03/08 00:30:57;;;;;;;0.00;0.00;;;15.10;63.50;;;;;;4197285;28;20049;-44
2021/03/08 00:33:18;;;;;;;0.10;0.10;;;15.10;63.60;;;;;;4197322;28;20052;-44
2021/03/08 00:35:40;;;;;;;0.00;0.00;;;15.10;63.70;;;;;;4197261;28;20522;-44
2021/03/08 00:38:01;;;;;;;0.00;0.00;;;15.10;63.70;;;;;;4196450;28;20494;-44
2021/03/08 00:40:23;;;;;;;0.00;0.00;;;15.10;63.70;;;;;;4196987;28;20052;-44
2021/03/08 00:42:45;;;;;;;0.40;0.40;;;15.10;63.80;;;;;;4196683;28;20055;-48
2021/03/08 00:45:09;;;;;;;0.00;0.00;;;15.00;63.70;;;;;;4195936;28;20507;-46
2021/03/08 00:47:30;;;;;;;0.00;0.00;;;15.00;63.70;;;;;;4197040;28;20133;-45
2021/03/08 00:49:54;;;;;;;0.00;0.00;;;15.00;63.80;;;;;;4196517;28;20052;-43
2021/03/08 00:52:16;;;;;;;0.22;0.22;;;15.00;63.80;;;;;;4195853;28;20052;-44
2021/03/08 00:54:37;;;;;;;0.20;0.20;;;15.00;63.80;;;;;;4195791;28;20059;-44
2021/03/08 00:56:58;;;;;;;0.00;0.00;;;15.00;63.80;;;;;;4195603;28;20487;-44
2021/03/08 00:59:30;;;;;;;0.00;0.00;;;15.00;63.80;;;;;;4195368;28;20059;-45
2021/03/08 01:01:56;;;;;;;0.00;0.00;;;15.00;63.90;;;;;;4196819;28;20533;-43
2021/03/08 01:04:18;;;;;;;0.00;0.00;;;15.00;63.90;;;;;;4195691;28;20442;-44
2021/03/08 01:06:42;;;;;;;0.15;0.15;;;15.00;63.90;;;;;;4195330;28;20063;-44
2021/03/08 01:09:06;;;;;;;0.00;0.00;;;15.00;64.00;;;;;;4195590;28;20052;-44
2021/03/08 01:11:27;;;;;;;0.32;0.32;;;15.00;64.00;;;;;;4196198;28;20501;-46
2021/03/08 01:13:56;;;;;;;0.00;0.00;;;14.90;64.10;;;;;;4179063;28;20392;-44
2021/03/08 01:16:17;;;;;;;0.80;0.80;;;14.90;64.10;;;;;;4183848;28;20059;-46
2021/03/08 01:18:39;;;;;;;0.00;0.00;;;14.90;64.10;;;;;;4195885;28;20491;-44
2021/03/08 01:21:00;;;;;;;0.00;0.00;;;14.90;64.10;;;;;;4196331;28;20110;-44
2021/03/08 01:23:21;;;;;;;0.00;0.00;;;14.90;64.20;;;;;;4196377;28;20071;-46
2021/03/08 01:25:43;;;;;;;0.00;0.00;;;14.90;64.30;;;;;;4196405;28;20063;-45
2021/03/08 01:28:05;;;;;;;0.00;0.00;;;14.90;64.30;;;;;;4178918;28;20494;-44
2021/03/08 01:30:28;;;;;;;0.00;0.00;;;14.90;64.30;;;;;;4179933;28;20048;-44
2021/03/08 01:32:49;;;;;;;0.00;0.00;;;14.80;64.30;;;;;;4179858;28;20462;-43
2021/03/08 01:35:17;;;;;;;0.10;0.10;;;14.80;64.30;;;;;;4179718;28;20059;-50
2021/03/08 01:37:39;;;;;;;0.00;0.00;;;14.80;64.40;;;;;;4179756;28;20059;-48
2021/03/08 01:40:00;;;;;;;1.17;0.70;;;14.80;64.40;;;;;;4182726;28;20055;-44
2021/03/08 01:42:21;;;;;;;0.00;0.00;;;14.80;64.50;;;;;;4195922;28;20128;-45
2021/03/08 01:44:42;;;;;;;0.00;0.00;;;14.80;64.50;;;;;;4195902;28;20071;-45
2021/03/08 01:47:03;;;;;;;0.00;0.00;;;14.80;64.60;;;;;;4195656;28;20131;-46
2021/03/08 01:49:24;;;;;;;0.00;0.00;;;14.80;64.60;;;;;;4195012;28;20064;-46
2021/03/08 01:51:46;;;;;;;0.00;0.00;;;14.70;64.60;;;;;;4196058;28;20159;-43
2021/03/08 01:54:07;;;;;;;0.00;0.00;;;14.70;64.80;;;;;;4195993;28;20465;-44
2021/03/08 01:56:28;;;;;;;0.00;0.00;;;14.70;64.80;;;;;;4195686;28;20059;-43
2021/03/08 01:58:51;;;;;;;0.00;0.00;;;14.70;64.80;;;;;;4195366;28;20127;-44
2021/03/08 02:01:12;;;;;;;0.00;0.00;;;14.70;64.90;;;;;;4195620;28;20071;-46
2021/03/08 02:03:34;;;;;;;0.00;0.00;;;14.70;64.90;;;;;;4195859;28;20080;-46
2021/03/08 02:05:55;;;;;;;0.25;0.25;;;14.60;64.90;;;;;;4195683;28;20530;-44
2021/03/08 02:08:19;;;;;;;0.00;0.00;;;14.60;64.90;;;;;;4195966;28;20059;-44
2021/03/08 02:10:45;;;;;;;0.00;0.00;;;14.60;65.00;;;;;;4195719;28;20716;-44
2021/03/08 02:13:36;;;;;;;0.00;0.00;;;14.60;65.00;;;;;;4195661;28;20049;-44
2021/03/08 02:16:02;;;;;;;0.00;0.00;;;14.60;65.00;;;;;;4195589;28;20055;-44
2021/03/08 02:18:33;;;;;;;0.00;0.00;;;14.60;65.10;;;;;;4195088;28;20421;-44
2021/03/08 02:21:09;;;;;;;0.00;0.00;;;14.60;65.20;;;;;;4195419;28;20125;-44
2021/03/08 02:24:20;;;;;;;0.00;0.00;;;14.60;65.20;;;;;;4195469;28;20060;-47
2021/03/08 02:26:49;;;;;;;0.00;0.00;;;14.50;65.30;;;;;;4127826;28;20055;-44
2021/03/08 02:29:40;;;;;;;0.00;0.00;;;14.60;65.20;;;;;;4188265;28;20437;-49
2021/03/08 02:32:07;;;;;;;0.55;0.55;;;14.70;65.30;;;;;;4192631;28;20057;-44
2021/03/08 02:34:30;;;;;;;0.00;0.00;;;14.80;65.00;;;;;;4195718;28;20088;-46
2021/03/08 02:36:59;;;;;;;0.00;0.00;;;14.90;64.60;;;;;;4195261;28;20060;-44
2021/03/08 02:39:25;;;;;;;0.00;0.00;;;14.90;64.30;;;;;;4181809;28;20490;-44
2021/03/08 02:41:48;;;;;;;0.00;0.00;;;15.00;64.10;;;;;;4195207;28;20085;-44
2021/03/08 02:44:11;;;;;;;0.00;0.00;;;15.00;64.00;;;;;;4195440;28;20414;-45
2021/03/08 02:46:36;;;;;;;0.00;0.00;;;15.10;64.00;;;;;;4195229;28;20128;-44
2021/03/08 02:49:03;;;;;;;0.00;0.00;;;15.00;63.80;;;;;;4194996;28;20490;-44
2021/03/08 02:51:26;;;;;;;0.00;0.00;;;15.00;64.70;;;;;;4195386;28;20159;-44
2021/03/08 02:53:50;;;;;;;0.10;0.10;;;15.00;63.70;;;;;;4194527;28;20457;-44
2021/03/08 02:56:16;;;;;;;0.00;0.00;;;15.00;63.80;;;;;;4194814;28;20053;-44
2021/03/08 02:58:39;;;;;;;0.00;0.00;;;15.00;63.80;;;;;;4195262;28;20512;-44
2021/03/08 03:01:04;;;;;;;0.00;0.00;;;15.00;63.90;;;;;;4196481;28;20052;-45
2021/03/08 03:03:28;;;;;;;0.00;0.00;;;15.00;63.90;;;;;;4198836;28;20173;-46
2021/03/08 03:05:50;;;;;;;0.38;0.38;;;15.00;64.00;;;;;;4198107;28;20052;-45
2021/03/08 03:08:12;;;;;;;0.40;0.40;;;15.10;63.70;;;;;;4198466;28;20139;-44
2021/03/08 03:10:35;;;;;;;0.03;0.03;;;15.20;63.40;;;;;;4198327;28;20056;-46
2021/03/08 03:12:58;;;;;;;0.00;0.00;;;15.30;63.20;;;;;;4198509;28;20053;-45
2021/03/08 03:15:20;;;;;;;0.00;0.00;;;15.30;63.00;;;;;;4198377;28;20513;-44
2021/03/08 03:17:42;;;;;;;0.00;0.00;;;15.40;63.10;;;;;;4181893;28;20425;-44
2021/03/08 03:20:07;;;;;;;0.00;0.00;;;15.40;62.90;;;;;;4181791;28;20045;-49
2021/03/08 03:22:30;;;;;;;0.00;0.00;;;15.40;62.80;;;;;;4181932;28;20071;-52
2021/03/08 03:24:54;;;;;;;0.00;0.00;;;15.40;62.90;;;;;;4181746;28;20135;-48
2021/03/08 03:27:16;;;;;;;0.00;0.00;;;15.40;62.90;;;;;;4197085;28;20056;-44
2021/03/08 03:29:38;;;;;;;0.00;0.00;;;15.40;62.80;;;;;;4198279;28;20056;-49
2021/03/08 03:32:01;;;;;;;0.15;0.15;;;15.50;62.60;;;;;;4197842;28;20055;-45
2021/03/08 03:34:23;;;;;;;0.20;0.20;;;15.50;62.40;;;;;;4198082;28;20437;-44
2021/03/08 03:36:44;;;;;;;;;;;15.50;62.40;;;;;;4198168;28;20083;-47
2021/03/08 03:39:07;;;;;;;;;;;15.50;62.40;;;;;;4198711;28;19920;-44
2021/03/08 03:41:28;;;;;;;0.30;0.30;;;15.40;62.50;;;;;;4197705;28;19974;-45
2021/03/08 03:43:49;;;;;;;0.00;0.00;;;15.40;62.60;;;;;;4197690;28;20102;-45
2021/03/08 03:46:10;;;;;;;0.13;0.13;;;15.30;62.70;;;;;;4198119;28;20053;-45
2021/03/08 03:48:31;;;;;;;0.00;0.00;;;15.30;62.90;;;;;;4198023;28;20783;-44
2021/03/08 03:50:54;;;;;;;;;;;15.20;63.00;;;;;;4198096;28;20056;-44
2021/03/08 03:53:15;;;;;;;0.00;0.00;;;15.20;63.10;;;;;;4196812;28;19928;-48
2021/03/08 03:55:38;;;;;;;0.45;0.45;;;15.20;63.20;;;;;;4197451;28;20079;-44
2021/03/08 03:58:06;;;;;;;0.00;0.00;;;15.20;63.30;;;;;;4197475;28;20473;-46
2021/03/08 04:00:30;;;;;;;0.03;0.03;;;15.20;63.40;;;;;;4197668;28;20067;-45
2021/03/08 04:02:59;;;;;;;0.00;0.00;;;15.30;63.00;;;;;;4197691;28;20056;-44
2021/03/08 04:05:24;;;;;;;0.00;0.00;;;15.50;62.40;;;;;;4197769;28;20055;-44
2021/03/08 04:07:49;;;;;;;0.00;0.00;;;15.60;62.00;;;;;;4197597;28;20060;-46
2021/03/08 04:10:12;;;;;;;0.00;0.00;;;15.60;61.90;;;;;;4197391;28;20053;-43
2021/03/08 04:12:34;;;;;;;0.00;0.00;;;15.60;61.80;;;;;;4196551;28;20057;-44
2021/03/08 04:14:59;;;;;;;0.00;0.00;;;15.60;61.80;;;;;;4197376;28;20052;-44
2021/03/08 04:17:25;;;;;;;0.00;0.00;;;15.50;61.90;;;;;;4197655;28;20095;-45
2021/03/08 04:19:47;;;;;;;0.00;0.00;;;15.50;62.00;;;;;;4197107;28;20122;-44
2021/03/08 04:22:10;;;;;;;0.00;0.00;;;15.60;62.10;;;;;;4197475;28;20060;-45
2021/03/08 04:24:32;;;;;;;0.00;0.00;;;15.60;61.90;;;;;;4197092;28;20454;-44
2021/03/08 04:26:55;;;;;;;0.10;0.10;;;15.60;61.80;;;;;;4197066;28;20063;-43
2021/03/08 04:29:19;;;;;;;0.43;0.43;;;15.60;61.90;;;;;;4197331;28;20045;-44
2021/03/08 04:31:40;;;;;;;4.05;1.45;;;15.50;61.90;;;;;;4197196;28;20051;-44
2021/03/08 04:34:02;;;;;;;0.00;0.00;;;15.50;62.10;;;;;;4196828;28;20044;-44
2021/03/08 04:36:24;;;;;;;0.03;0.03;;;15.40;62.20;;;;;;4196855;28;20063;-44
2021/03/08 04:38:45;;;;;;;0.00;0.00;;;15.40;62.50;;;;;;4197214;28;20403;-44
2021/03/08 04:41:07;;;;;;;0.00;0.00;;;15.30;62.50;;;;;;4196701;28;20403;-45
2021/03/08 04:43:28;;;;;;;;;;;15.30;62.70;;;;;;4197595;28;20099;-48
2021/03/08 04:45:53;;;;;;;0.00;0.00;;;15.20;62.80;;;;;;4197090;28;19974;-48
2021/03/08 04:48:15;;;;;;;0.00;0.00;;;15.20;63.90;;;;;;4180296;28;20110;-46
2021/03/08 04:50:37;;;;;;;0.00;0.00;;;15.40;62.80;;;;;;4180326;28;20572;-46
2021/03/08 04:52:58;;;;;;;;;;;15.60;61.80;;;;;;4180986;28;20057;-44
2021/03/08 04:55:23;;;;;;;0.00;0.00;;;15.80;61.00;;;;;;4187566;28;19924;-46
2021/03/08 04:57:45;;;;;;;0.00;0.00;;;15.90;60.70;;;;;;4196843;28;20071;-45
2021/03/08 05:00:08;;;;;;;0.70;0.70;;;15.90;60.40;;;;;;4196709;28;20084;-44
2021/03/08 05:02:35;;;;;;;0.00;0.00;;;16.00;60.30;;;;;;4196599;28;20053;-44
2021/03/08 05:04:57;;;;;;;0.00;0.00;;;16.00;60.30;;;;;;4196482;28;20084;-48
2021/03/08 05:07:20;;;;;;;0.00;0.00;;;16.00;60.40;;;;;;4196919;28;20052;-49
2021/03/08 05:09:42;;;;;;;1.02;0.77;;;15.90;60.50;;;;;;4196752;28;20059;-44
2021/03/08 05:12:09;;;;;;;0.00;0.00;;;15.90;60.70;;;;;;4196672;28;20056;-45
2021/03/08 05:14:30;;;;;;;0.10;0.10;;;15.80;60.90;;;;;;4196476;28;20076;-46
2021/03/08 05:16:52;;;;;;;0.00;0.00;;;15.70;60.90;;;;;;4195697;28;20129;-44
2021/03/08 05:19:15;;;;;;;0.25;0.25;;;15.70;61.20;;;;;;4196379;28;20061;-44
2021/03/08 05:21:37;;;;;;;0.00;0.00;;;15.70;61.20;;;;;;4196450;28;20411;-47
2021/03/08 05:23:58;;;;;;;0.00;0.00;;;15.60;61.30;;;;;;4196290;28;20053;-44
2021/03/08 05:26:19;;;;;;;0.00;0.00;;;15.60;61.50;;;;;;4196179;28;20052;-44
2021/03/08 05:28:40;;;;;;;0.00;0.00;;;15.60;61.60;;;;;;4196231;28;20568;-44
2021/03/08 05:31:02;;;;;;;0.15;0.15;;;15.50;61.80;;;;;;4196389;28;20150;-45
2021/03/08 05:33:26;;;;;;;0.00;0.00;;;15.40;62.00;;;;;;4196403;28;20475;-46
2021/03/08 05:35:53;;;;;;;0.93;0.57;;;15.40;62.30;;;;;;4195599;28;20147;-44
2021/03/08 05:38:15;;;;;;;0.00;0.00;;;15.30;62.40;;;;;;4196010;28;20783;-45
2021/03/08 05:40:42;;;;;;;0.00;0.00;;;15.40;62.30;;;;;;4195900;28;20091;-43
2021/03/08 05:43:06;;;;;;;0.13;0.13;;;15.40;62.20;;;;;;4196033;28;20049;-45
2021/03/08 05:45:28;;;;;;;0.00;0.00;;;15.40;62.20;;;;;;4196052;28;20063;-46
2021/03/08 05:48:16;;;;;;;;;;;15.30;62.20;;;;;;4196125;28;20072;-47
2021/03/08 05:50:54;;;;;;;0.00;0.00;;;15.40;62.10;;;;;;4196070;28;20042;-44
2021/03/08 05:53:50;;;;;;;0.47;0.47;;;15.50;61.80;;;;;;4196007;28;20076;-45
2021/03/08 05:56:23;;;;;;;0.13;0.13;;;15.50;61.60;;;;;;4191544;28;20045;-44
2021/03/08 05:59:16;;;;;;;0.00;0.00;;;15.60;61.30;;;;;;4195869;28;20533;-45
2021/03/08 06:02:02;;;;;;;3.60;0.45;;;15.80;61.00;;;;;;4195925;28;20489;-44
2021/03/08 06:04:32;;;;;;;0.10;0.10;;;15.90;60.30;;;;;;4195840;28;20056;-44
2021/03/08 06:07:22;;;;;;;0.00;0.00;;;16.00;60.20;;;;;;4195347;28;20059;-50
2021/03/08 06:09:51;;;;;;;0.00;0.00;;;16.10;59.90;;;;;;4195581;28;20055;-46
2021/03/08 06:12:17;;;;;;;0.00;0.00;;;16.10;59.80;;;;;;4179329;28;20422;-44
2021/03/08 06:14:43;;;;;;;0.20;0.20;;;16.10;59.80;;;;;;4185441;28;20159;-50
2021/03/08 06:17:06;;;;;;;0.00;0.00;;;16.00;59.80;;;;;;4195843;28;20052;-44
2021/03/08 06:19:30;;;;;;;0.00;0.00;;;16.00;59.90;;;;;;4195587;28;20505;-44
2021/03/08 06:21:53;;;;;;;0.00;0.00;;;16.10;59.80;;;;;;4195746;28;20143;-46
2021/03/08 06:24:17;;;;;;;0.00;0.00;;;16.10;59.60;;;;;;4195789;28;20161;-48
2021/03/08 06:26:39;;;;;;;0.08;0.08;;;16.20;59.50;;;;;;4179174;28;20064;-44
2021/03/08 06:29:00;;;;;;;0.10;0.10;;;16.20;59.40;;;;;;4179151;28;20135;-44
2021/03/08 06:31:21;;;;;;;0.20;0.20;;;16.20;59.40;;;;;;4179182;28;20076;-44
2021/03/08 06:33:50;;;;;;;0.00;0.00;;;16.30;59.30;;;;;;4179763;28;20057;-44
2021/03/08 06:36:12;;;;;;;1.20;1.10;;;16.50;58.90;;;;;;4194488;28;20045;-46
2021/03/08 06:38:32;;;;;;;0.00;0.00;;;16.60;58.80;;;;;;4193895;28;20067;-43
2021/03/08 06:40:54;;;;;;;0.17;0.17;;;16.70;58.80;;;;;;4192737;28;20662;-46
2021/03/08 06:43:16;;;;;;;0.47;0.47;;;16.80;58.80;;;;;;4194994;28;20529;-45
2021/03/08 06:45:37;;;;;;;3.85;1.35;;;16.70;58.90;;;;;;4194819;28;20558;-45
2021/03/08 06:47:59;;;;;;;18.35;0.90;;;16.70;59.00;;;;;;4194097;28;20060;-50
2021/03/08 06:50:20;;;;;;;;;;;16.60;59.00;;;;;;4195751;28;20049;-50
2021/03/08 06:52:42;;;;;;;0.63;0.63;;;16.60;59.10;;;;;;4195764;28;19924;-44
2021/03/08 06:55:06;;;;;;;1.75;1.55;;;16.50;59.10;;;;;;4195144;28;20049;-44
2021/03/08 06:57:30;;;;;;;0.80;0.80;;;16.50;59.20;;;;;;4195719;28;20049;-44
2021/03/08 06:59:56;;;;;;;0.00;0.00;;;16.40;59.30;;;;;;4195554;28;20049;-45
2021/03/08 07:02:17;;;;;;;0.00;0.00;;;16.40;59.50;;;;;;4195334;28;20132;-47
2021/03/08 07:04:45;;;;;;;5.28;0.60;;;16.40;59.30;;;;;;4195192;28;20048;-44
2021/03/08 07:07:09;;;;;;;0.08;0.08;;;16.50;59.10;;;;;;4195534;28;20589;-44
2021/03/08 07:09:31;;;;;;;0.80;0.80;;;16.50;58.80;;;;;;4195281;28;20396;-46
2021/03/08 07:12:07;;;;;;;0.00;0.00;;;16.50;58.80;;;;;;4195096;28;20048;-46
2021/03/08 07:14:29;;;;;;;0.00;0.00;;;16.50;58.80;;;;;;4193025;28;20048;-44
2021/03/08 07:16:50;;;;;;;0.00;0.00;;;16.40;58.80;;;;;;4193568;28;20503;-44
2021/03/08 07:19:16;;;;;;;0.00;0.00;;;16.30;59.00;;;;;;4195275;28;20071;-45
2021/03/08 07:21:37;;;;;;;0.00;0.00;;;16.30;59.20;;;;;;4194136;28;20059;-48
2021/03/08 07:24:09;;;;;;;0.00;0.00;;;16.40;59.00;;;;;;4195125;28;20075;-46
2021/03/08 07:26:30;;;;;;;0.00;0.00;;;16.40;58.80;;;;;;4178746;28;20052;-51
2021/03/08 07:29:08;;;;;;;0.03;0.03;;;16.40;58.60;;;;;;4178722;28;20053;-52
2021/03/08 07:31:37;;;;;;;0.00;0.00;;;16.40;58.60;;;;;;4181885;28;20455;-51
2021/03/08 07:34:00;;;;;;;0.17;0.15;;;16.40;58.70;;;;;;4195164;28;20117;-52
2021/03/08 07:36:21;;;;;;;0.00;0.00;;;16.20;58.80;;;;;;4194598;28;20045;-45
2021/03/08 07:38:41;;;;;;;0.00;0.00;;;16.20;58.90;;;;;;4195060;28;20076;-51
2021/03/08 07:41:10;;;;;;;0.00;0.00;;;16.20;59.00;;;;;;4194220;28;20060;-48
2021/03/08 07:43:31;;;;;;;1.35;1.25;;;16.10;59.10;;;;;;4193951;28;20053;-47
2021/03/08 07:45:52;;;;;;;0.00;0.00;;;16.10;59.30;;;;;;4195048;28;20136;-51
2021/03/08 07:48:16;;;;;;;0.00;0.00;;;16.00;59.40;;;;;;4196458;28;20055;-45
2021/03/08 07:50:38;;;;;;;1.88;1.45;;;16.00;59.60;;;;;;4196491;28;20052;-43
2021/03/08 07:52:59;;;;;;;0.00;0.00;;;16.00;59.60;;;;;;4197447;28;20063;-44
2021/03/08 07:55:20;;;;;;;0.00;0.00;;;16.00;59.50;;;;;;4194043;28;20478;-44
2021/03/08 07:57:42;;;;;;;0.00;0.00;;;16.00;59.40;;;;;;4197156;28;20087;-45
2021/03/08 08:00:04;;;;;;;0.20;0.20;;;16.00;59.40;;;;;;4197197;28;20056;-45
2021/03/08 08:02:29;;;;;;;0.00;0.00;;;16.00;59.50;;;;;;4196246;28;20413;-44
2021/03/08 08:04:56;;;;;;;0.00;0.00;;;16.00;59.50;;;;;;4182150;28;20049;-45
2021/03/08 08:07:21;;;;;;;0.00;0.00;;;16.00;59.60;;;;;;4195721;28;20066;-46
2021/03/08 08:09:44;;;;;;;2.10;0.88;;;16.00;59.60;;;;;;4197059;28;20121;-44
2021/03/08 08:12:11;;;;;;;0.00;0.00;;;16.10;59.40;;;;;;4197034;28;20084;-44
2021/03/08 08:14:38;;;;;;;0.00;0.00;;;16.20;59.00;;;;;;4196806;28;20490;-44
2021/03/08 08:17:03;;;;;;;0.00;0.00;;;16.30;58.90;;;;;;4196616;28;20052;-44
2021/03/08 08:19:27;;;;;;;1.15;1.10;;;16.30;58.80;;;;;;4193834;28;20135;-45
2021/03/08 08:21:50;;;;;;;0.00;0.00;;;16.40;58.80;;;;;;4194449;28;20049;-44
2021/03/08 08:24:19;;;;;;;1.55;0.90;;;16.40;58.80;;;;;;4196979;28;20048;-44
2021/03/08 08:26:40;;;;;;;0.00;0.00;;;16.40;58.70;;;;;;4184849;28;20055;-44
2021/03/08 08:29:03;;;;;;;0.15;0.15;;;16.40;58.80;;;;;;4197053;28;20048;-45
2021/03/08 08:31:25;;;;;;;0.00;0.00;;;16.30;58.90;;;;;;4196864;28;20498;-47
2021/03/08 08:33:47;;;;;;;0.00;0.00;;;16.20;58.90;;;;;;4193268;28;20846;-47
2021/03/08 08:36:09;;;;;;;;;;;16.20;59.00;;;;;;4197651;28;20493;-45
2021/03/08 08:38:30;;;;;;;;;;;16.20;59.20;;;;;;4197439;28;19924;-43
2021/03/08 08:41:08;;;;;;;;;;;16.10;59.20;;;;;;4197333;28;19966;-45
2021/03/08 08:43:30;;;;;;;0.00;0.00;;;16.10;59.30;;;;;;4196971;28;20414;-44
2021/03/08 08:45:52;;;;;;;0.00;0.00;;;16.00;59.40;;;;;;4196673;28;20125;-44
2021/03/08 08:48:13;;;;;;;0.00;0.00;;;15.90;59.50;;;;;;4196949;28;20064;-43
2021/03/08 08:50:46;;;;;;;0.00;0.00;;;15.90;59.60;;;;;;4189365;28;20060;-43
2021/03/08 08:53:07;;;;;;;0.00;0.00;;;15.80;59.70;;;;;;4182081;28;20052;-44
2021/03/08 08:55:49;;;;;;;0.28;0.28;;;15.80;60.00;;;;;;4193418;28;20056;-45
2021/03/08 08:58:24;;;;;;;0.05;0.05;;;15.60;60.10;;;;;;4195651;28;20060;-44
2021/03/08 09:01:32;;;;;;;0.20;0.20;;;15.60;60.30;;;;;;4196770;28;20137;-44
2021/03/08 09:03:56;;;;;;;1.65;0.80;;;15.70;60.30;;;;;;4196390;28;20060;-43
2021/03/08 09:06:41;;;;;;;4.28;0.73;;;15.80;59.90;;;;;;4196274;28;20403;-44
2021/03/08 09:09:02;;;;;;;0.00;0.00;;;15.90;59.80;;;;;;4187042;28;20045;-43
2021/03/08 09:11:44;;;;;;;0.00;0.00;;;15.80;59.60;;;;;;4187968;28;20056;-44
2021/03/08 09:14:27;;;;;;;0.10;0.10;;;15.80;59.60;;;;;;4196599;28;20127;-45
2021/03/08 09:16:49;;;;;;;0.00;0.00;;;15.80;59.60;;;;;;4196187;28;20055;-44
2021/03/08 09:19:19;;;;;;;0.10;0.10;;;15.70;59.80;;;;;;4195795;28;20056;-44
2021/03/08 09:21:40;;;;;;;2.50;0.95;;;15.70;60.00;;;;;;4195876;28;20053;-45
2021/03/08 09:24:30;;;;;;;0.10;0.10;;;15.70;59.90;;;;;;4196268;28;20052;-47
2021/03/08 09:26:55;;;;;;;0.90;0.90;;;15.60;60.10;;;;;;4184561;28;20057;-45
2021/03/08 09:29:22;;;;;;;0.03;0.03;;;15.60;60.10;;;;;;4196032;28;20101;-44
2021/03/08 09:31:44;;;;;;;0.08;0.08;;;15.60;61.00;;;;;;4196085;28;20057;-45
2021/03/08 09:34:05;;;;;;;0.00;0.00;;;15.60;60.00;;;;;;4196004;28;20088;-43
2021/03/08 09:36:26;;;;;;;0.20;0.20;;;15.50;60.00;;;;;;4195889;28;20052;-43
2021/03/08 09:38:48;;;;;;;0.00;0.00;;;15.50;60.10;;;;;;4195899;28;20051;-45
2021/03/08 09:41:09;;;;;;;0.00;0.00;;;15.50;60.30;;;;;;4196193;28;20079;-44
2021/03/08 09:43:32;;;;;;;0.00;0.00;;;15.50;60.30;;;;;;4196090;28;20486;-44
2021/03/08 09:45:58;;;;;;;0.22;0.22;;;15.40;60.30;;;;;;4192729;28;20044;-45
2021/03/08 09:48:19;;;;;;;0.65;0.65;;;15.40;60.20;;;;;;4195860;28;20053;-44
2021/03/08 09:50:41;;;;;;;0.00;0.00;;;15.40;60.70;;;;;;4190298;28;20558;-45
2021/03/08 09:53:01;;;;;;;;;;;15.40;60.60;;;;;;4180493;28;20139;-44
2021/03/08 09:55:25;;;;;;;0.00;0.00;;;15.40;60.60;;;;;;4195637;28;19920;-44
2021/03/08 09:57:46;;;;;;;0.63;0.63;;;15.40;60.70;;;;;;4195178;28;20048;-44
2021/03/08 10:00:10;;;;;;;0.00;0.00;;;15.30;60.90;;;;;;4195648;28;20044;-46
2021/03/08 10:02:31;;;;;;;4.47;2.83;;;15.30;61.10;;;;;;4195465;28;20064;-44
2021/03/08 10:04:56;;;;;;;0.75;0.75;;;15.30;61.00;;;;;;4195538;28;20059;-45
2021/03/08 10:07:17;;;;;;;0.28;0.28;;;15.30;61.00;;;;;;4195846;28;20442;-45
2021/03/08 10:09:38;;;;;;;1.35;1.25;;;15.30;60.90;;;;;;4195136;28;20102;-44
2021/03/08 10:12:02;;;;;;;0.00;0.00;;;15.40;60.80;;;;;;4195351;28;20087;-44
2021/03/08 10:14:24;;;;;;;0.00;0.00;;;15.50;60.80;;;;;;4195899;28;20064;-45
2021/03/08 10:16:46;;;;;;;0.00;0.00;;;15.60;60.40;;;;;;4195858;28;20044;-50
2021/03/08 10:19:08;;;;;;;0.00;0.00;;;15.70;59.40;;;;;;4192025;28;20047;-47
2021/03/08 10:21:29;;;;;;;0.00;0.00;;;15.80;59.50;;;;;;4154656;28;20574;-45
2021/03/08 10:23:51;;;;;;;0.35;0.35;;;15.90;59.30;;;;;;4162406;28;20119;-43
2021/03/08 10:26:13;;;;;;;0.00;0.00;;;15.90;59.40;;;;;;4162611;28;20052;-44
2021/03/08 10:28:37;;;;;;;2.28;2.08;;;15.90;59.30;;;;;;4158489;28;20476;-44
2021/03/08 10:30:58;;;;;;;1.13;0.55;;;15.90;59.30;;;;;;4162136;28;20045;-44
2021/03/08 10:33:21;;;;;;;;;;;16.00;59.70;;;;;;4162695;28;20046;-44
2021/03/08 10:35:44;;;;;;;0.20;0.20;;;16.00;59.70;;;;;;4161579;28;19924;-45
2021/03/08 10:38:22;;;;;;;0.00;0.00;;;16.00;59.80;;;;;;4162167;28;20512;-48
2021/03/08 10:40:43;;;;;;;0.20;0.20;;;16.00;60.10;;;;;;4162067;28;20515;-44
2021/03/08 10:43:04;;;;;;;0.00;0.00;;;16.10;59.40;;;;;;4152304;28;20060;-44
2021/03/08 10:45:26;;;;;;;0.00;0.00;;;16.10;58.70;;;;;;4162261;28;20648;-46
2021/03/08 10:48:06;;;;;;;0.08;0.08;;;16.20;58.90;;;;;;4161993;28;20488;-50
2021/03/08 10:50:39;;;;;;;0.00;0.00;;;16.20;58.20;;;;;;4160368;28;20064;-46
2021/03/08 10:53:05;;;;;;;0.10;0.10;;;16.20;58.80;;;;;;4146032;28;20077;-48
2021/03/08 10:55:30;;;;;;;0.05;0.05;;;16.20;58.90;;;;;;4157149;28;20057;-54
2021/03/08 10:57:51;;;;;;;0.00;0.00;;;16.20;59.70;;;;;;4162427;28;20110;-52
2021/03/08 11:00:20;;;;;;;1.08;1.08;;;16.20;59.00;;;;;;4162366;28;20083;-45
2021/03/08 11:02:41;;;;;;;0.05;0.05;;;16.20;59.20;;;;;;4161592;28;20585;-47
2021/03/08 11:05:12;;;;;;;0.00;0.00;;;16.20;59.00;;;;;;4161900;28;20053;-45
2021/03/08 11:07:34;;;;;;;0.15;0.15;;;16.20;59.00;;;;;;4146019;28;20100;-45
2021/03/08 11:09:55;;;;;;;0.00;0.00;;;16.20;59.00;;;;;;4153555;28;20058;-47
2021/03/08 11:12:18;;;;;;;0.00;0.00;;;16.20;59.10;;;;;;4161585;28;20091;-49
2021/03/08 11:14:50;;;;;;;0.60;0.60;;;16.20;59.20;;;;;;4152166;28;20054;-45
2021/03/08 11:17:11;;;;;;;;;;;16.20;59.20;;;;;;4162344;28;20099;-48
2021/03/08 11:19:31;;;;;;;0.00;0.00;;;16.10;59.20;;;;;;4164376;28;20379;-46
2021/03/08 11:22:02;;;;;;;0.00;0.00;;;16.10;59.20;;;;;;4196270;28;20087;-44
2021/03/08 11:24:30;;;;;;;0.00;0.00;;;16.10;59.30;;;;;;4198162;28;20494;-46
2021/03/08 11:27:14;;;;;;;0.00;0.00;;;16.00;59.20;;;;;;4198221;28;20048;-47
2021/03/08 11:29:35;;;;;;;0.00;0.00;;;16.00;59.20;;;;;;4181775;28;20422;-47
2021/03/08 11:31:56;;;;;;;0.10;0.10;;;16.00;59.10;;;;;;4180707;28;20148;-45
2021/03/08 11:34:17;;;;;;;0.00;0.00;;;16.00;59.10;;;;;;4195346;28;20569;-46
2021/03/08 11:36:38;;;;;;;0.00;0.00;;;15.90;59.70;;;;;;4198314;28;20044;-46
2021/03/08 11:39:05;;;;;;;0.13;0.13;;;15.90;59.40;;;;;;4197796;28;20072;-44
2021/03/08 11:41:27;;;;;;;0.00;0.00;;;15.90;60.00;;;;;;4198059;28;20593;-46
2021/03/08 11:43:50;;;;;;;0.20;0.20;;;15.90;61.00;;;;;;4197631;28;20052;-51
2021/03/08 11:46:11;;;;;;;0.00;0.00;;;15.90;61.00;;;;;;4196539;28;20082;-46
2021/03/08 11:48:31;;;;;;;0.10;0.10;;;15.80;61.00;;;;;;4197758;28;20743;-44
2021/03/08 11:50:54;;;;;;;0.00;0.00;;;15.80;60.90;;;;;;4197971;28;20060;-45
2021/03/08 11:53:15;;;;;;;0.20;0.20;;;15.70;60.90;;;;;;4197732;28;20530;-45
2021/03/08 11:55:36;;;;;;;0.00;0.00;;;15.70;60.90;;;;;;4197832;28;20197;-47
2021/03/08 11:57:58;;;;;;;0.00;0.00;;;15.60;60.90;;;;;;4197884;28;20052;-48
2021/03/08 12:00:22;;;;;;;0.65;0.65;;;15.60;60.90;;;;;;4197779;28;20126;-44
2021/03/08 12:02:42;;;;;;;0.05;0.05;;;15.60;60.90;;;;;;4197864;28;20057;-45
2021/03/08 12:05:04;;;;;;;0.00;0.00;;;15.60;60.40;;;;;;4197836;28;20056;-51
2021/03/08 12:07:25;;;;;;;0.00;0.00;;;15.50;60.30;;;;;;4198016;28;20054;-50
2021/03/08 12:09:46;;;;;;;0.03;0.03;;;15.50;60.30;;;;;;4197738;28;20114;-44
2021/03/08 12:12:08;;;;;;;0.00;0.00;;;15.50;60.30;;;;;;4197798;28;20501;-44
2021/03/08 12:14:30;;;;;;;0.30;0.25;;;15.50;60.40;;;;;;4197445;28;20055;-44
2021/03/08 12:16:52;;;;;;;0.08;0.08;;;15.50;60.40;;;;;;4197404;28;20060;-45
2021/03/08 12:19:14;;;;;;;0.00;0.00;;;15.50;60.60;;;;;;4197595;28;20056;-44
2021/03/08 12:21:37;;;;;;;0.13;0.13;;;15.50;60.80;;;;;;4197573;28;20052;-45
2021/03/08 12:23:58;;;;;;;1.55;1.27;;;15.60;60.90;;;;;;4197427;28;20423;-46
2021/03/08 12:26:20;;;;;;;8.80;0.88;;;15.60;60.60;;;;;;4197549;28;20048;-48
2021/03/08 12:28:41;;;;;;;0.20;0.20;;;15.60;61.50;;;;;;4197394;28;20059;-46
2021/03/08 12:31:09;;;;;;;0.45;0.45;;;15.60;60.40;;;;;;4197354;28;20131;-46
2021/03/08 12:33:33;;;;;;;0.00;0.00;;;15.60;60.30;;;;;;4196035;28;20121;-44
2021/03/08 12:35:54;;;;;;;0.00;0.00;;;15.60;60.30;;;;;;4197025;28;20469;-45